Spanish Springs, Nevada
Current Conditions -  °F | °C
As of 10:30 PM on Monday 20 Oct 2014 (Local Time) from KRTS Reporting Station
Light Rain Light Rain  
Wind Chill: 35°   Ceiling: 2500
Heat Index: 43°   Visibility: 5mi
Dew Point: 39°   Wind: 17mph
Humidity: 87%   Direction: 270°W
Pressure: 29.98"   Gusts: 29mph
Location:  39.6582°N, 119.695°W
Report Text: KRTS 210530Z AUTO 27015G25KT 5SM -RA FEW015 BKN025 BKN045 06/04 A2998 RMK AO2
Loading
Personal Weather Stations






























Interactive Weather Map
Tropical Storm Tracking
New forecast layout! Learn more

10-Day Weather Forecast

Advertisements
Track Severe Weather on mobile